createdAt,value
2023-02-11T00:10:00.604Z,97941.13
2023-02-11T00:20:03.039Z,97939.75
2023-02-11T00:30:07.374Z,97934.75
2023-02-11T00:40:10.299Z,97941.97
2023-02-11T00:50:14.170Z,97936.28
2023-02-11T01:00:17.024Z,97921.81
2023-02-11T01:10:20.903Z,97916.09
2023-02-11T01:20:24.455Z,97914.44
2023-02-11T01:30:28.205Z,97897.75
2023-02-11T01:40:30.594Z,97898.09
2023-02-11T01:50:34.445Z,97879.53
2023-02-11T02:00:38.099Z,97878.13
2023-02-11T02:10:44.087Z,97858.22
2023-02-11T02:21:07.422Z,97848.16
2023-02-11T02:31:24.755Z,97837.81
2023-02-11T02:41:30.798Z,97842.16
2023-02-11T02:51:43.457Z,97842.00
2023-02-11T03:01:51.567Z,97829.44
2023-02-11T03:11:54.099Z,97815.59
2023-02-11T03:21:58.609Z,97827.78
2023-02-11T03:32:05.483Z,97821.84
2023-02-11T03:42:10.825Z,97810.19
2023-02-11T03:52:13.860Z,97821.25
2023-02-11T04:02:17.714Z,97837.72
2023-02-11T04:12:20.468Z,97820.09
2023-02-11T04:22:24.300Z,97824.13
2023-02-11T04:32:26.780Z,97813.53
2023-02-11T04:42:30.617Z,97832.91
2023-02-11T04:52:33.083Z,97836.00
2023-02-11T05:02:36.876Z,97828.41
2023-02-11T05:12:39.316Z,97819.94
2023-02-11T05:22:43.110Z,97807.97
2023-02-11T05:32:45.592Z,97811.84
2023-02-11T05:42:49.367Z,97788.16
2023-02-11T05:52:51.807Z,97766.69
2023-02-11T06:02:55.885Z,97756.69
2023-02-11T06:12:58.364Z,97762.22
2023-02-11T06:23:02.139Z,97759.59
2023-02-11T06:33:04.915Z,97789.28
2023-02-11T06:43:08.754Z,97786.13
2023-02-11T06:53:11.164Z,97786.28
2023-02-11T07:03:14.997Z,97787.81
2023-02-11T07:13:17.478Z,97800.88
2023-02-11T07:23:21.416Z,97811.53
2023-02-11T07:33:23.982Z,97811.53
2023-02-11T07:43:27.828Z,97797.69
2023-02-11T07:53:30.326Z,97806.13
2023-02-11T08:03:34.701Z,97831.09
2023-02-11T08:13:37.363Z,97808.50
2023-02-11T08:23:41.932Z,97794.88
2023-02-11T08:33:44.827Z,97788.00
2023-02-11T08:43:49.339Z,97789.94
2023-02-11T08:53:52.216Z,97815.91
2023-02-11T09:03:56.357Z,97813.63
2023-02-11T09:13:58.831Z,97798.34
2023-02-11T09:24:02.778Z,97789.53
2023-02-11T09:34:06.074Z,97802.66
2023-02-11T09:44:18.489Z,97803.75
2023-02-11T09:54:24.398Z,97799.19
2023-02-11T10:04:38.513Z,97787.88
2023-02-11T10:14:53.869Z,97799.72
2023-02-11T10:25:00.098Z,97812.00
2023-02-11T10:35:04.099Z,97800.84
2023-02-11T10:45:14.527Z,97786.56
2023-02-11T10:55:18.099Z,97778.88
2023-02-11T11:05:25.008Z,97756.44
2023-02-11T11:15:28.165Z,97761.97
2023-02-11T11:25:32.157Z,97742.56
2023-02-11T11:35:34.601Z,97755.88
2023-02-11T11:45:38.373Z,97750.91
2023-02-11T11:55:42.712Z,97736.25
2023-02-11T12:05:51.301Z,97744.22
2023-02-11T12:15:58.126Z,97715.06
2023-02-11T12:26:08.441Z,97725.56
2023-02-11T12:36:13.914Z,97721.94
2023-02-11T12:46:26.802Z,97709.91
2023-02-11T12:56:33.372Z,97719.34
2023-02-11T13:06:38.734Z,97700.47
2023-02-11T13:16:42.280Z,97698.97
2023-02-11T13:26:49.281Z,97686.78
2023-02-11T13:36:55.895Z,97684.91
2023-02-11T13:47:01.396Z,97678.50
2023-02-11T13:57:22.815Z,97683.03
2023-02-11T14:07:48.481Z,97690.06
2023-02-11T14:17:52.359Z,97675.88
2023-02-11T14:27:59.124Z,97667.97
2023-02-11T14:38:07.388Z,97677.97
2023-02-11T14:48:16.993Z,97672.75
2023-02-11T14:58:20.988Z,97677.47
2023-02-11T15:08:26.740Z,97683.03
2023-02-11T15:18:32.654Z,97681.88
2023-02-11T15:28:36.524Z,97686.34
2023-02-11T15:38:39.065Z,97704.50
2023-02-11T15:48:44.940Z,97698.22
2023-02-11T15:58:48.850Z,97706.00
2023-02-11T16:09:00.444Z,97718.88
2023-02-11T16:19:05.965Z,97708.44
2023-02-11T16:29:12.331Z,97729.28
2023-02-11T16:39:16.692Z,97737.16
2023-02-11T16:49:22.673Z,97752.75
2023-02-11T16:59:25.150Z,97781.38
2023-02-11T17:09:31.134Z,97786.47
2023-02-11T17:19:33.728Z,97793.38
2023-02-11T17:29:37.678Z,97801.59
2023-02-11T17:39:40.634Z,97808.09
2023-02-11T17:49:44.391Z,97803.47
2023-02-11T17:59:46.924Z,97814.59
2023-02-11T18:09:50.662Z,97824.50
2023-02-11T18:19:56.143Z,97839.13
2023-02-11T18:30:00.183Z,97843.44
2023-02-11T18:40:02.617Z,97840.97
2023-02-11T18:50:07.311Z,97841.09
2023-02-11T19:00:10.991Z,97849.72
2023-02-11T19:10:14.778Z,97862.69
2023-02-11T19:20:17.504Z,97859.38
2023-02-11T19:30:21.455Z,97858.19
2023-02-11T19:40:23.871Z,97845.25
2023-02-11T19:50:27.660Z,97844.09
2023-02-11T20:00:30.070Z,97833.81
2023-02-11T20:10:35.227Z,97834.31
2023-02-11T20:20:39.046Z,97839.59
2023-02-11T20:30:42.850Z,97838.13
2023-02-11T20:40:45.274Z,97838.13
2023-02-11T20:50:49.062Z,97833.66
2023-02-11T21:00:51.513Z,97842.78
2023-02-11T21:10:55.327Z,97847.25
2023-02-11T21:20:58.127Z,97857.38
2023-02-11T21:31:02.274Z,97854.38
2023-02-11T21:41:05.520Z,97868.16
2023-02-11T21:51:10.186Z,97871.63
2023-02-11T22:01:13.742Z,97883.91
2023-02-11T22:11:17.697Z,97882.22
2023-02-11T22:21:21.233Z,97894.19
2023-02-11T22:31:26.208Z,97891.84
2023-02-11T22:41:28.848Z,97893.66
2023-02-11T22:51:33.008Z,97901.25
2023-02-11T23:01:36.147Z,97904.06
2023-02-11T23:11:40.397Z,97904.75
2023-02-11T23:21:42.842Z,97903.41
2023-02-11T23:31:46.766Z,97906.56
2023-02-11T23:41:49.301Z,97899.59
2023-02-11T23:51:53.100Z,97905.72
